createdAt,value
2017-07-26T00:01:04.547Z,16.37
2017-07-26T00:02:17.091Z,16.37
2017-07-26T00:03:29.732Z,16.37
2017-07-26T00:04:42.333Z,16.32
2017-07-26T00:05:54.942Z,16.39
2017-07-26T00:07:07.482Z,16.37
2017-07-26T00:08:20.085Z,16.26
2017-07-26T00:09:32.668Z,16.37
2017-07-26T00:10:44.956Z,16.37
2017-07-26T00:11:57.625Z,16.25
2017-07-26T00:13:10.233Z,16.36
2017-07-26T00:14:22.839Z,16.37
2017-07-26T00:15:35.429Z,16.31
2017-07-26T00:16:48.016Z,16.31
2017-07-26T00:18:00.606Z,16.37
2017-07-26T00:19:13.185Z,16.36
2017-07-26T00:20:25.781Z,16.26
2017-07-26T00:21:38.418Z,16.37
2017-07-26T00:22:50.986Z,16.34
2017-07-26T00:24:03.556Z,16.32
2017-07-26T00:25:16.164Z,16.37
2017-07-26T00:26:28.759Z,16.39
2017-07-26T00:27:41.359Z,16.29
2017-07-26T00:28:53.998Z,16.37
2017-07-26T00:30:06.598Z,16.34
2017-07-26T00:31:19.165Z,16.32
2017-07-26T00:32:31.761Z,16.39
2017-07-26T00:33:44.317Z,16.31
2017-07-26T00:34:56.894Z,16.39
2017-07-26T00:36:09.521Z,16.32
2017-07-26T00:37:22.069Z,16.26
2017-07-26T00:38:34.694Z,16.34
2017-07-26T00:39:47.279Z,16.34
2017-07-26T00:40:59.926Z,16.4
2017-07-26T00:42:12.164Z,16.32
2017-07-26T00:43:24.709Z,16.34
2017-07-26T00:44:37.320Z,16.31
2017-07-26T00:45:49.958Z,16.28
2017-07-26T00:47:02.217Z,16.31
2017-07-26T00:48:14.810Z,16.36
2017-07-26T00:49:27.074Z,16.32
2017-07-26T00:50:39.695Z,16.39
2017-07-26T00:51:52.539Z,16.43
2017-07-26T00:53:04.816Z,16.37
2017-07-26T00:54:17.457Z,16.34
2017-07-26T00:55:29.748Z,16.31
2017-07-26T00:56:42.261Z,16.31
2017-07-26T00:57:54.568Z,16.37
2017-07-26T00:59:07.191Z,16.29
2017-07-26T01:00:19.436Z,16.32
2017-07-26T01:01:32.005Z,16.39
2017-07-26T01:02:44.539Z,16.37
2017-07-26T01:03:57.161Z,16.37
2017-07-26T01:05:09.772Z,16.34
2017-07-26T01:06:22.363Z,16.31
2017-07-26T01:07:34.928Z,16.36
2017-07-26T01:08:47.185Z,16.34
2017-07-26T01:09:59.707Z,16.31
2017-07-26T01:11:12.022Z,16.36
2017-07-26T01:12:24.612Z,16.32
2017-07-26T01:13:37.240Z,16.32
2017-07-26T01:14:49.846Z,16.28
2017-07-26T01:16:02.466Z,16.29
2017-07-26T01:17:14.794Z,16.36
2017-07-26T01:18:27.349Z,16.29
2017-07-26T01:19:39.912Z,16.29
2017-07-26T01:20:52.444Z,16.31
2017-07-26T01:22:05.062Z,16.25
2017-07-26T01:23:17.056Z,16.34
2017-07-26T01:24:29.603Z,16.21
2017-07-26T01:25:41.916Z,16.25
2017-07-26T01:26:54.224Z,16.17
2017-07-26T01:28:06.799Z,16.31
2017-07-26T01:29:19.384Z,16.26
2017-07-26T01:30:31.685Z,16.26
2017-07-26T01:31:44.246Z,16.28
2017-07-26T01:32:56.798Z,16.26
2017-07-26T01:34:09.456Z,16.28
2017-07-26T01:35:22.027Z,16.31
2017-07-26T01:36:34.329Z,16.26
2017-07-26T01:37:46.899Z,16.28
2017-07-26T01:38:59.177Z,16.24
2017-07-26T01:40:11.423Z,16.21
2017-07-26T01:41:24.023Z,16.31
2017-07-26T01:42:36.623Z,16.28
2017-07-26T01:43:49.205Z,16.29
2017-07-26T01:45:01.805Z,16.31
2017-07-26T01:46:14.429Z,16.34
2017-07-26T01:47:26.956Z,16.29
2017-07-26T01:48:39.646Z,16.29
2017-07-26T01:49:52.210Z,16.26
2017-07-26T01:51:04.811Z,16.26
2017-07-26T01:52:17.109Z,16.24
2017-07-26T01:53:29.403Z,16.18
2017-07-26T01:54:41.993Z,16.12
2017-07-26T01:55:54.247Z,16.17
2017-07-26T01:57:06.811Z,16.13
2017-07-26T01:58:19.097Z,16.08
2017-07-26T01:59:31.665Z,16.16
2017-07-26T02:00:44.297Z,16.06
2017-07-26T02:01:56.800Z,16.08
2017-07-26T02:03:09.382Z,16.13
2017-07-26T02:04:21.978Z,16.05
2017-07-26T02:05:33.938Z,16.1
2017-07-26T02:06:46.565Z,16.08
2017-07-26T02:07:59.185Z,16.17
2017-07-26T02:09:11.813Z,16.1
2017-07-26T02:10:24.390Z,16.05
2017-07-26T02:11:36.694Z,16.03
2017-07-26T02:12:49.250Z,16.05
2017-07-26T02:14:02.066Z,16
2017-07-26T02:15:14.345Z,16.02
2017-07-26T02:16:26.640Z,16.02
2017-07-26T02:17:39.220Z,16.02
2017-07-26T02:18:51.219Z,16
2017-07-26T02:20:03.163Z,15.98
2017-07-26T02:21:15.464Z,15.9
2017-07-26T02:22:28.086Z,16
2017-07-26T02:23:40.733Z,15.9
2017-07-26T02:24:53.257Z,15.94
2017-07-26T02:26:05.901Z,15.9
2017-07-26T02:27:18.240Z,15.85
2017-07-26T02:28:30.828Z,16
2017-07-26T02:29:43.410Z,15.92
2017-07-26T02:30:55.931Z,15.83
2017-07-26T02:32:07.875Z,15.9
2017-07-26T02:33:20.473Z,15.87
2017-07-26T02:34:32.790Z,15.78
2017-07-26T02:35:45.385Z,15.73
2017-07-26T02:36:57.683Z,15.84
2017-07-26T02:38:10.298Z,15.83
2017-07-26T02:39:22.850Z,15.83
2017-07-26T02:40:35.146Z,15.81
2017-07-26T02:41:47.798Z,15.66
2017-07-26T02:43:00.387Z,15.78
2017-07-26T02:44:12.961Z,15.66
2017-07-26T02:45:25.233Z,15.66
2017-07-26T02:46:37.906Z,15.67
2017-07-26T02:47:50.522Z,15.69
2017-07-26T02:49:02.829Z,15.66
2017-07-26T02:50:14.827Z,15.67
2017-07-26T02:51:27.659Z,15.66
2017-07-26T02:52:39.975Z,15.67
2017-07-26T02:53:52.527Z,15.67
2017-07-26T02:55:04.782Z,15.65
2017-07-26T02:56:17.428Z,15.67
2017-07-26T02:57:30.016Z,15.69
2017-07-26T02:58:42.608Z,15.66
2017-07-26T02:59:55.185Z,15.69
2017-07-26T03:01:07.479Z,15.67
2017-07-26T03:02:19.750Z,15.66
2017-07-26T03:03:32.317Z,15.7
2017-07-26T03:04:44.931Z,15.7
2017-07-26T03:05:57.461Z,15.66
2017-07-26T03:07:10.018Z,15.72
2017-07-26T03:08:22.350Z,15.67
2017-07-26T03:09:34.633Z,15.69
2017-07-26T03:10:47.196Z,15.7
2017-07-26T03:11:59.850Z,15.69
2017-07-26T03:13:12.185Z,15.67
2017-07-26T03:14:24.124Z,15.69
2017-07-26T03:15:36.672Z,15.66
2017-07-26T03:16:49.339Z,15.7
2017-07-26T03:18:01.979Z,15.7
2017-07-26T03:19:14.580Z,15.69
2017-07-26T03:20:26.893Z,15.69
2017-07-26T03:21:39.485Z,15.72
2017-07-26T03:22:52.056Z,15.67
2017-07-26T03:24:04.875Z,15.65
2017-07-26T03:25:16.821Z,15.66
2017-07-26T03:26:29.189Z,15.78
2017-07-26T03:27:41.847Z,15.67
2017-07-26T03:28:54.168Z,15.69
2017-07-26T03:30:06.742Z,15.69
2017-07-26T03:31:19.348Z,15.66
2017-07-26T03:32:31.649Z,15.69
2017-07-26T03:33:44.240Z,15.76
2017-07-26T03:34:56.824Z,15.76
2017-07-26T03:36:09.436Z,15.76
2017-07-26T03:37:21.786Z,15.78
2017-07-26T03:38:34.392Z,15.67
2017-07-26T03:39:46.703Z,15.66
2017-07-26T03:40:59.042Z,15.75
2017-07-26T03:42:11.614Z,15.7
2017-07-26T03:43:23.632Z,15.76
2017-07-26T03:44:35.921Z,15.66
2017-07-26T03:45:48.492Z,15.76
2017-07-26T03:47:01.138Z,15.76
2017-07-26T03:48:13.369Z,15.83
2017-07-26T03:49:25.913Z,15.76
2017-07-26T03:50:38.484Z,15.76
2017-07-26T03:51:51.004Z,15.81
2017-07-26T03:53:03.576Z,15.8
2017-07-26T03:54:16.149Z,15.81
2017-07-26T03:55:28.723Z,15.75
2017-07-26T03:56:41.624Z,15.87
2017-07-26T03:57:54.214Z,15.87
2017-07-26T03:59:06.455Z,15.83
2017-07-26T04:00:18.993Z,15.85
2017-07-26T04:01:31.264Z,15.87
2017-07-26T04:02:43.845Z,15.9
2017-07-26T04:03:56.491Z,15.94
2017-07-26T04:05:08.776Z,15.87
2017-07-26T04:06:21.005Z,15.92
2017-07-26T04:07:33.279Z,15.98
2017-07-26T04:08:45.828Z,15.85
2017-07-26T04:09:58.118Z,15.88
2017-07-26T04:11:10.118Z,15.92
2017-07-26T04:12:22.678Z,15.98
2017-07-26T04:13:35.210Z,15.92
2017-07-26T04:14:47.802Z,15.91
2017-07-26T04:16:00.117Z,15.9
2017-07-26T04:17:12.371Z,15.94
2017-07-26T04:18:24.615Z,15.96
2017-07-26T04:19:37.285Z,15.96
2017-07-26T04:20:49.538Z,15.96
2017-07-26T04:22:02.161Z,15.99
2017-07-26T04:23:14.703Z,15.94
2017-07-26T04:24:27.253Z,15.91
2017-07-26T04:25:39.904Z,15.94
2017-07-26T04:26:52.527Z,15.91
2017-07-26T04:28:05.134Z,15.92
2017-07-26T04:29:17.703Z,15.96
2017-07-26T04:30:30.274Z,16
2017-07-26T04:31:42.823Z,15.99
2017-07-26T04:32:55.432Z,16.05
2017-07-26T04:34:07.711Z,16.02
2017-07-26T04:35:20.356Z,16.02
2017-07-26T04:36:32.685Z,16.03
2017-07-26T04:37:45.292Z,16.03
2017-07-26T04:38:57.845Z,16
2017-07-26T04:40:10.315Z,16.03
2017-07-26T04:41:22.897Z,16.03
2017-07-26T04:42:35.475Z,16.03
2017-07-26T04:43:47.708Z,16
2017-07-26T04:45:00.283Z,16.05
2017-07-26T04:46:12.298Z,16.05
2017-07-26T04:47:24.927Z,16
2017-07-26T04:48:36.879Z,16.02
2017-07-26T04:49:49.508Z,15.99
2017-07-26T04:51:01.739Z,16.02
2017-07-26T04:52:14.300Z,16.03
2017-07-26T04:53:26.281Z,16.05
2017-07-26T04:54:38.921Z,16.02
2017-07-26T04:55:50.923Z,16
2017-07-26T04:57:03.525Z,16.1
2017-07-26T04:58:16.104Z,16.05
2017-07-26T04:59:28.666Z,16.13
2017-07-26T05:00:40.927Z,16.03
2017-07-26T05:01:53.559Z,16.12
2017-07-26T05:03:06.173Z,16.13
2017-07-26T05:04:18.515Z,16.09
2017-07-26T05:05:31.098Z,16.02
2017-07-26T05:06:43.623Z,16.12
2017-07-26T05:07:56.513Z,16.16
2017-07-26T05:09:09.124Z,16.09
2017-07-26T05:10:21.679Z,16.17
2017-07-26T05:11:33.644Z,16.17
2017-07-26T05:12:46.263Z,16.1
2017-07-26T05:13:58.819Z,16.21
2017-07-26T05:15:11.439Z,16.22
2017-07-26T05:16:24.081Z,16.13
2017-07-26T05:17:36.694Z,16.21
2017-07-26T05:18:49.288Z,16.16
2017-07-26T05:20:01.922Z,16.13
2017-07-26T05:21:14.252Z,16.13
2017-07-26T05:22:26.500Z,16.17
2017-07-26T05:23:39.128Z,16.09
2017-07-26T05:24:51.700Z,16.16
2017-07-26T05:26:04.303Z,16.12
2017-07-26T05:27:16.936Z,16.12
2017-07-26T05:28:28.963Z,16.16
2017-07-26T05:29:41.585Z,16.22
2017-07-26T05:30:54.172Z,16.18
2017-07-26T05:32:06.742Z,16.18
2017-07-26T05:33:19.339Z,16.22
2017-07-26T05:34:31.956Z,16.17
2017-07-26T05:35:44.512Z,16.22
2017-07-26T05:36:57.126Z,16.22
2017-07-26T05:38:09.400Z,16.21
2017-07-26T05:39:22.040Z,16.26
2017-07-26T05:40:34.615Z,16.22
2017-07-26T05:41:46.931Z,16.29
2017-07-26T05:42:59.548Z,16.24
2017-07-26T05:44:12.148Z,16.22
2017-07-26T05:45:24.961Z,16.24
2017-07-26T05:46:37.192Z,16.29
2017-07-26T05:47:49.465Z,16.28
2017-07-26T05:49:02.069Z,16.29
2017-07-26T05:50:14.700Z,16.31
2017-07-26T05:51:26.971Z,16.29
2017-07-26T05:52:39.497Z,16.29
2017-07-26T05:53:51.827Z,16.37
2017-07-26T05:55:04.440Z,16.37
2017-07-26T05:56:16.711Z,16.34
2017-07-26T05:57:29.354Z,16.39
2017-07-26T05:58:41.954Z,16.39
2017-07-26T05:59:54.323Z,16.47
2017-07-26T06:01:06.609Z,16.39
2017-07-26T06:02:19.170Z,16.41
2017-07-26T06:03:31.420Z,16.49
2017-07-26T06:04:44.010Z,16.51
2017-07-26T06:05:56.276Z,16.44
2017-07-26T06:07:08.550Z,16.44
2017-07-26T06:08:20.498Z,16.4
2017-07-26T06:09:33.118Z,16.46
2017-07-26T06:10:45.157Z,16.57
2017-07-26T06:11:57.433Z,16.5
2017-07-26T06:13:09.387Z,16.57
2017-07-26T06:14:21.950Z,16.54
2017-07-26T06:15:34.187Z,16.59
2017-07-26T06:16:46.481Z,16.58
2017-07-26T06:17:59.003Z,16.57
2017-07-26T06:19:11.356Z,16.58
2017-07-26T06:20:23.908Z,16.62
2017-07-26T06:21:36.525Z,16.65
2017-07-26T06:22:49.142Z,16.66
2017-07-26T06:24:01.499Z,16.61
2017-07-26T06:25:13.789Z,16.65
2017-07-26T06:26:26.368Z,16.64
2017-07-26T06:27:38.964Z,16.66
2017-07-26T06:28:51.364Z,16.66
2017-07-26T06:30:03.961Z,16.58
2017-07-26T06:31:16.517Z,16.64
2017-07-26T06:32:28.785Z,16.59
2017-07-26T06:33:41.359Z,16.65
2017-07-26T06:34:53.905Z,16.57
2017-07-26T06:36:06.190Z,16.58
2017-07-26T06:37:18.446Z,16.54
2017-07-26T06:38:31.093Z,16.54
2017-07-26T06:39:43.928Z,16.54
2017-07-26T06:40:55.934Z,16.62
2017-07-26T06:42:08.181Z,16.61
2017-07-26T06:43:20.753Z,16.59
2017-07-26T06:44:33.379Z,16.62
2017-07-26T06:45:45.683Z,16.66
2017-07-26T06:46:58.299Z,16.66
2017-07-26T06:48:10.993Z,16.58
2017-07-26T06:49:23.556Z,16.62
2017-07-26T06:50:35.841Z,16.61
2017-07-26T06:51:48.138Z,16.65
2017-07-26T06:53:00.696Z,16.62
2017-07-26T06:54:13.036Z,16.65
2017-07-26T06:55:25.600Z,16.72
2017-07-26T06:56:38.185Z,16.65
2017-07-26T06:57:50.752Z,16.68
2017-07-26T06:59:03.052Z,16.62
2017-07-26T07:00:14.991Z,16.62
2017-07-26T07:01:27.597Z,16.66
2017-07-26T07:02:39.911Z,16.69
2017-07-26T07:03:52.171Z,16.66
2017-07-26T07:05:04.761Z,16.66
2017-07-26T07:06:17.107Z,16.74
2017-07-26T07:07:29.792Z,16.68
2017-07-26T07:08:42.043Z,16.72
2017-07-26T07:09:54.349Z,16.73
2017-07-26T07:11:06.279Z,16.74
2017-07-26T07:12:18.802Z,16.74
2017-07-26T07:13:31.047Z,16.68
2017-07-26T07:14:43.669Z,16.72
2017-07-26T07:15:55.919Z,16.69
2017-07-26T07:17:08.470Z,16.72
2017-07-26T07:18:20.741Z,16.72
2017-07-26T07:19:33.333Z,16.73
2017-07-26T07:20:45.584Z,16.76
2017-07-26T07:21:58.171Z,16.79
2017-07-26T07:23:10.802Z,16.76
2017-07-26T07:24:23.382Z,16.77
2017-07-26T07:25:35.637Z,16.76
2017-07-26T07:26:48.260Z,16.79
2017-07-26T07:28:00.846Z,16.74
2017-07-26T07:29:13.209Z,16.77
2017-07-26T07:30:25.862Z,16.79
2017-07-26T07:31:38.504Z,16.8
2017-07-26T07:32:51.104Z,16.72
2017-07-26T07:34:03.413Z,16.76
2017-07-26T07:35:16.051Z,16.84
2017-07-26T07:36:28.672Z,16.77
2017-07-26T07:37:40.946Z,16.8
2017-07-26T07:38:53.597Z,16.87
2017-07-26T07:40:06.141Z,16.86
2017-07-26T07:41:18.393Z,16.68
2017-07-26T07:42:30.347Z,16.72
2017-07-26T07:43:42.311Z,16.8
2017-07-26T07:44:54.893Z,16.72
2017-07-26T07:46:07.514Z,16.73
2017-07-26T07:47:19.818Z,16.73
2017-07-26T07:48:32.146Z,16.83
2017-07-26T07:49:44.715Z,16.79
2017-07-26T07:50:57.320Z,16.82
2017-07-26T07:52:09.595Z,16.72
2017-07-26T07:53:22.264Z,16.82
2017-07-26T07:54:34.889Z,16.84
2017-07-26T07:55:47.486Z,16.86
2017-07-26T07:56:59.775Z,16.69
2017-07-26T07:58:11.723Z,16.74
2017-07-26T07:59:24.048Z,16.73
2017-07-26T08:00:36.648Z,16.72
2017-07-26T08:01:48.957Z,16.72
2017-07-26T08:03:01.255Z,16.72
2017-07-26T08:04:13.803Z,16.66
2017-07-26T08:05:26.018Z,16.76
2017-07-26T08:06:38.571Z,16.77
2017-07-26T08:07:51.129Z,16.69
2017-07-26T08:09:03.087Z,16.69
2017-07-26T08:10:15.407Z,16.76
2017-07-26T08:11:27.950Z,16.72
2017-07-26T08:12:40.247Z,16.69
2017-07-26T08:13:52.560Z,16.69
2017-07-26T08:15:04.840Z,16.82
2017-07-26T08:16:16.784Z,16.65
2017-07-26T08:17:29.304Z,16.66
2017-07-26T08:18:41.913Z,16.72
2017-07-26T08:19:54.504Z,16.68
2017-07-26T08:21:07.145Z,16.72
2017-07-26T08:22:19.705Z,16.66
2017-07-26T08:23:32.291Z,16.62
2017-07-26T08:24:44.854Z,16.59
2017-07-26T08:25:57.184Z,16.61
2017-07-26T08:27:09.458Z,16.62
2017-07-26T08:28:21.768Z,16.61
2017-07-26T08:29:34.295Z,16.59
2017-07-26T08:30:46.270Z,16.59
2017-07-26T08:31:58.548Z,16.66
2017-07-26T08:33:11.150Z,16.64
2017-07-26T08:34:23.747Z,16.61
2017-07-26T08:35:36.353Z,16.65
2017-07-26T08:36:48.967Z,16.61
2017-07-26T08:38:01.616Z,16.59
2017-07-26T08:39:14.474Z,16.62
2017-07-26T08:40:26.455Z,16.54
2017-07-26T08:41:39.023Z,16.57
2017-07-26T08:42:51.297Z,16.61
2017-07-26T08:44:03.589Z,16.62
2017-07-26T08:45:15.565Z,16.64
2017-07-26T08:46:27.557Z,16.59
2017-07-26T08:47:40.144Z,16.72
2017-07-26T08:48:52.747Z,16.72
2017-07-26T08:50:05.047Z,16.68
2017-07-26T08:51:17.667Z,16.65
2017-07-26T08:52:30.223Z,16.68
2017-07-26T08:53:42.824Z,16.69
2017-07-26T08:54:55.389Z,16.74
2017-07-26T08:56:07.725Z,16.79
2017-07-26T08:57:20.257Z,16.69
2017-07-26T08:58:32.540Z,16.64
2017-07-26T08:59:45.103Z,16.66
2017-07-26T09:00:57.731Z,16.68
2017-07-26T09:02:09.686Z,16.72
2017-07-26T09:03:22.298Z,16.77
2017-07-26T09:04:34.302Z,16.76
2017-07-26T09:05:46.642Z,16.8
2017-07-26T09:06:59.240Z,16.73
2017-07-26T09:08:11.801Z,16.89
2017-07-26T09:09:24.407Z,16.72
2017-07-26T09:10:36.974Z,16.87
2017-07-26T09:11:49.238Z,16.89
2017-07-26T09:13:01.509Z,16.91
2017-07-26T09:14:13.824Z,16.87
2017-07-26T09:15:26.401Z,16.91
2017-07-26T09:16:38.967Z,16.92
2017-07-26T09:17:51.530Z,16.92
2017-07-26T09:19:03.824Z,16.91
2017-07-26T09:20:16.399Z,16.91
2017-07-26T09:21:28.616Z,16.89
2017-07-26T09:22:41.234Z,16.91
2017-07-26T09:23:53.807Z,16.91
2017-07-26T09:25:06.382Z,16.89
2017-07-26T09:26:18.951Z,16.91
2017-07-26T09:27:31.274Z,16.91
2017-07-26T09:28:43.969Z,16.95
2017-07-26T09:29:55.909Z,16.94
2017-07-26T09:31:08.143Z,16.87
2017-07-26T09:32:20.102Z,16.92
2017-07-26T09:33:32.360Z,16.91
2017-07-26T09:34:44.946Z,16.92
2017-07-26T09:35:57.520Z,16.94
2017-07-26T09:37:09.863Z,16.97
2017-07-26T09:38:22.463Z,16.89
2017-07-26T09:39:35.047Z,16.95
2017-07-26T09:40:47.614Z,16.97
2017-07-26T09:41:59.330Z,16.92
2017-07-26T09:43:11.916Z,16.97
2017-07-26T09:44:24.528Z,17.02
2017-07-26T09:45:37.165Z,16.95
2017-07-26T09:46:49.753Z,17.04
2017-07-26T09:48:02.298Z,17.01
2017-07-26T09:49:14.860Z,17.01
2017-07-26T09:50:27.103Z,16.99
2017-07-26T09:51:39.714Z,17.02
2017-07-26T09:52:52.320Z,16.99
2017-07-26T09:54:04.941Z,17.07
2017-07-26T09:55:17.210Z,16.98
2017-07-26T09:56:29.537Z,16.97
2017-07-26T09:57:42.084Z,16.98
2017-07-26T09:58:54.411Z,17.02
2017-07-26T10:00:06.651Z,16.99
2017-07-26T10:01:19.265Z,17.04
2017-07-26T10:02:31.851Z,16.94
2017-07-26T10:03:44.437Z,17.01
2017-07-26T10:04:57.044Z,17.05
2017-07-26T10:06:09.698Z,17.01
2017-07-26T10:07:22.357Z,16.95
2017-07-26T10:08:34.561Z,17.07
2017-07-26T10:09:47.149Z,17.12
2017-07-26T10:10:59.453Z,17.05
2017-07-26T10:12:12.052Z,17.07
2017-07-26T10:13:24.320Z,17.14
2017-07-26T10:14:36.919Z,17.1
2017-07-26T10:15:49.463Z,17.07
2017-07-26T10:17:01.806Z,17.1
2017-07-26T10:18:14.453Z,17.12
2017-07-26T10:19:27.066Z,17.1
2017-07-26T10:20:39.663Z,17.12
2017-07-26T10:21:52.183Z,17.12
2017-07-26T10:23:04.416Z,17.16
2017-07-26T10:24:17.019Z,17.04
2017-07-26T10:25:29.647Z,17.1
2017-07-26T10:26:42.216Z,17.01
2017-07-26T10:27:54.850Z,17.04
2017-07-26T10:29:07.187Z,17.02
2017-07-26T10:30:19.509Z,16.98
2017-07-26T10:31:32.068Z,17.04
2017-07-26T10:32:44.321Z,17.01
2017-07-26T10:33:56.930Z,17.07
2017-07-26T10:35:09.539Z,17.04
2017-07-26T10:36:22.085Z,16.95
2017-07-26T10:37:34.318Z,17.07
2017-07-26T10:38:46.877Z,17.04
2017-07-26T10:39:58.875Z,16.95
2017-07-26T10:41:11.435Z,16.94
2017-07-26T10:42:24.020Z,17.01
2017-07-26T10:43:36.613Z,17.02
2017-07-26T10:44:48.915Z,17.02
2017-07-26T10:46:01.255Z,17.04
2017-07-26T10:47:13.854Z,16.99
2017-07-26T10:48:26.177Z,17.01
2017-07-26T10:49:38.465Z,17.04
2017-07-26T10:50:51.069Z,17.04
2017-07-26T10:52:03.360Z,17.05
2017-07-26T10:53:16.034Z,16.98
2017-07-26T10:54:28.651Z,17.12
2017-07-26T10:55:40.895Z,17.01
2017-07-26T10:56:52.582Z,17.1
2017-07-26T10:58:04.854Z,17.05
2017-07-26T10:59:16.857Z,17.09
2017-07-26T11:00:29.433Z,17.12
2017-07-26T11:01:41.723Z,17.13
2017-07-26T11:02:53.673Z,17.02
2017-07-26T11:04:06.266Z,17.05
2017-07-26T11:05:18.840Z,17.14
2017-07-26T11:06:31.436Z,17.07
2017-07-26T11:07:44.004Z,17.09
2017-07-26T11:08:56.610Z,17.16
2017-07-26T11:10:09.172Z,17.13
2017-07-26T11:11:21.698Z,17.17
2017-07-26T11:12:34.214Z,17.12
2017-07-26T11:13:46.156Z,17.14
2017-07-26T11:14:58.418Z,17.2
2017-07-26T11:16:10.751Z,17.22
2017-07-26T11:17:23.353Z,17.2
2017-07-26T11:18:35.648Z,17.16
2017-07-26T11:19:48.236Z,17.17
2017-07-26T11:21:00.845Z,17.07
2017-07-26T11:22:13.157Z,17.07
2017-07-26T11:23:25.428Z,17.07
2017-07-26T11:24:37.994Z,17.09
2017-07-26T11:25:50.593Z,17.05
2017-07-26T11:27:03.149Z,17.1
2017-07-26T11:28:15.690Z,17.07
2017-07-26T11:29:27.954Z,17.16
2017-07-26T11:30:40.554Z,17.04
2017-07-26T11:31:53.121Z,17.04
2017-07-26T11:33:05.718Z,17.04
2017-07-26T11:34:17.955Z,17.04
2017-07-26T11:35:30.252Z,17.1
2017-07-26T11:36:42.481Z,17.1
2017-07-26T11:37:55.029Z,17.12
2017-07-26T11:39:07.658Z,17.01
2017-07-26T11:40:19.977Z,16.99
2017-07-26T11:41:32.015Z,17.07
2017-07-26T11:42:43.988Z,17.07
2017-07-26T11:43:56.312Z,17.04
2017-07-26T11:45:08.264Z,17.05
2017-07-26T11:46:20.576Z,17.04
2017-07-26T11:47:32.557Z,16.98
2017-07-26T11:48:45.175Z,16.95
2017-07-26T11:49:57.752Z,17.02
2017-07-26T11:51:10.036Z,17.01
2017-07-26T11:52:22.643Z,16.99
2017-07-26T11:53:34.705Z,17.07
2017-07-26T11:54:46.972Z,16.95
2017-07-26T11:55:59.565Z,16.97
2017-07-26T11:57:11.838Z,16.94
2017-07-26T11:58:24.085Z,17.01
2017-07-26T11:59:36.635Z,16.98
2017-07-26T12:00:49.176Z,17.01
2017-07-26T12:02:01.795Z,16.99
2017-07-26T12:03:14.068Z,16.99
2017-07-26T12:04:25.712Z,16.91
2017-07-26T12:05:37.700Z,17.01
2017-07-26T12:06:50.266Z,16.99
2017-07-26T12:08:02.906Z,16.95
2017-07-26T12:09:15.199Z,16.89
2017-07-26T12:10:27.444Z,16.97
2017-07-26T12:11:39.149Z,17.01
2017-07-26T12:12:51.735Z,17.01
2017-07-26T12:14:04.300Z,16.99
2017-07-26T12:15:16.600Z,17.05
2017-07-26T12:16:28.315Z,16.91
2017-07-26T12:17:40.884Z,16.97
2017-07-26T12:18:53.461Z,17.01
2017-07-26T12:20:06.058Z,17.02
2017-07-26T12:21:18.605Z,17.01
2017-07-26T12:22:30.862Z,16.94
2017-07-26T12:23:43.474Z,16.97
2017-07-26T12:24:55.528Z,17.04
2017-07-26T12:26:07.869Z,17.04
2017-07-26T12:27:20.462Z,17.04
2017-07-26T12:28:32.985Z,17.02
2017-07-26T12:29:45.552Z,17.04
2017-07-26T12:30:58.119Z,17.04
2017-07-26T12:32:10.528Z,17.05
2017-07-26T12:33:22.846Z,17.01
2017-07-26T12:34:35.436Z,17.04
2017-07-26T12:35:47.699Z,17.01
2017-07-26T12:36:59.975Z,17.02
2017-07-26T12:38:12.847Z,17.07
2017-07-26T12:39:25.110Z,17.04
2017-07-26T12:40:37.689Z,16.92
2017-07-26T12:41:50.241Z,17.02
2017-07-26T12:43:02.807Z,17.07
2017-07-26T12:44:14.492Z,17.09
2017-07-26T12:45:26.171Z,17.07
2017-07-26T12:46:38.148Z,17.07
2017-07-26T12:47:50.482Z,17.1
2017-07-26T12:49:03.091Z,17.1
2017-07-26T12:50:15.649Z,17.1
2017-07-26T12:51:28.226Z,16.99
2017-07-26T12:52:40.434Z,17.01
2017-07-26T12:53:53.062Z,17.07
2017-07-26T12:55:05.682Z,17.01
2017-07-26T12:56:18.297Z,16.98
2017-07-26T12:57:30.607Z,17.05
2017-07-26T12:58:42.571Z,17.01
2017-07-26T12:59:55.180Z,16.98
2017-07-26T13:01:07.510Z,16.97
2017-07-26T13:02:19.790Z,16.95
2017-07-26T13:03:32.403Z,17.02
2017-07-26T13:04:44.964Z,16.97
2017-07-26T13:05:57.285Z,16.98
2017-07-26T13:07:09.642Z,16.99
2017-07-26T13:08:22.236Z,17.01
2017-07-26T13:09:34.166Z,16.99
2017-07-26T13:10:46.740Z,16.99
2017-07-26T13:11:59.027Z,17.01
2017-07-26T13:13:11.585Z,16.95
2017-07-26T13:14:23.843Z,16.99
2017-07-26T13:15:36.412Z,16.89
2017-07-26T13:16:48.944Z,16.89
2017-07-26T13:18:01.463Z,16.92
2017-07-26T13:19:13.407Z,16.89
2017-07-26T13:20:25.697Z,16.95
2017-07-26T13:21:37.992Z,16.98
2017-07-26T13:22:50.607Z,16.91
2017-07-26T13:24:02.898Z,16.89
2017-07-26T13:25:14.917Z,16.98
2017-07-26T13:26:27.195Z,16.92
2017-07-26T13:27:39.484Z,16.91
2017-07-26T13:28:51.804Z,16.84
2017-07-26T13:30:04.066Z,16.95
2017-07-26T13:31:16.378Z,16.89
2017-07-26T13:32:28.999Z,16.89
2017-07-26T13:33:41.347Z,16.91
2017-07-26T13:34:53.717Z,17.01
2017-07-26T13:36:05.993Z,16.92
2017-07-26T13:37:17.625Z,16.86
2017-07-26T13:38:30.183Z,16.92
2017-07-26T13:39:42.437Z,16.87
2017-07-26T13:40:54.128Z,16.83
2017-07-26T13:42:06.442Z,16.86
2017-07-26T13:43:18.779Z,16.89
2017-07-26T13:44:30.459Z,16.87
2017-07-26T13:45:42.460Z,16.92
2017-07-26T13:46:55.062Z,16.89
2017-07-26T13:48:07.010Z,16.87
2017-07-26T13:49:19.284Z,16.76
2017-07-26T13:50:31.534Z,16.83
2017-07-26T13:51:43.558Z,16.86
2017-07-26T13:52:56.152Z,16.87
2017-07-26T13:54:08.822Z,16.91
2017-07-26T13:55:20.472Z,16.87
2017-07-26T13:56:33.080Z,16.77
2017-07-26T13:57:45.739Z,16.83
2017-07-26T13:58:58.005Z,16.77
2017-07-26T14:00:09.720Z,16.83
2017-07-26T14:01:21.628Z,16.77
2017-07-26T14:02:34.019Z,16.82
2017-07-26T14:03:46.614Z,16.77
2017-07-26T14:04:59.206Z,16.74
2017-07-26T14:06:11.506Z,16.72
2017-07-26T14:07:23.786Z,16.77
2017-07-26T14:08:35.758Z,16.72
2017-07-26T14:09:48.362Z,16.74
2017-07-26T14:11:00.931Z,16.72
2017-07-26T14:12:13.232Z,16.72
2017-07-26T14:13:25.540Z,16.76
2017-07-26T14:14:38.131Z,16.69
2017-07-26T14:15:50.720Z,16.68
2017-07-26T14:17:03.311Z,16.64
2017-07-26T14:18:15.610Z,16.69
2017-07-26T14:19:27.858Z,16.65
2017-07-26T14:20:40.525Z,16.66
2017-07-26T14:21:53.069Z,16.65
2017-07-26T14:23:05.596Z,16.64
2017-07-26T14:24:17.920Z,16.68
2017-07-26T14:25:30.510Z,16.62
2017-07-26T14:26:42.747Z,16.62
2017-07-26T14:27:55.304Z,16.64
2017-07-26T14:29:07.945Z,16.58
2017-07-26T14:30:19.954Z,16.62
2017-07-26T14:31:32.213Z,16.65
2017-07-26T14:32:44.840Z,16.64
2017-07-26T14:33:57.468Z,16.62
2017-07-26T14:35:10.129Z,16.68
2017-07-26T14:36:22.672Z,16.66
2017-07-26T14:37:34.916Z,16.61
2017-07-26T14:38:47.588Z,16.64
2017-07-26T14:40:00.161Z,16.62
2017-07-26T14:41:12.698Z,16.65
2017-07-26T14:42:24.936Z,16.62
2017-07-26T14:43:37.265Z,16.62
2017-07-26T14:44:49.844Z,16.65
2017-07-26T14:46:02.341Z,16.64
2017-07-26T14:47:14.971Z,16.62
2017-07-26T14:48:26.358Z,16.66
2017-07-26T14:49:38.618Z,16.66
2017-07-26T14:50:51.190Z,16.66
2017-07-26T14:52:03.769Z,16.59
2017-07-26T14:53:15.777Z,16.57
2017-07-26T14:54:28.127Z,16.64
2017-07-26T14:55:40.764Z,16.55
2017-07-26T14:56:53.319Z,16.51
2017-07-26T14:58:05.880Z,16.58
2017-07-26T14:59:18.403Z,16.58
2017-07-26T15:00:30.965Z,16.55
2017-07-26T15:01:43.259Z,16.51
2017-07-26T15:02:55.877Z,16.55
2017-07-26T15:04:08.108Z,16.57
2017-07-26T15:05:19.851Z,16.47
2017-07-26T15:06:32.173Z,16.46
2017-07-26T15:07:44.791Z,16.43
2017-07-26T15:08:57.336Z,16.49
2017-07-26T15:10:09.968Z,16.46
2017-07-26T15:11:22.245Z,16.51
2017-07-26T15:12:34.551Z,16.46
2017-07-26T15:13:47.137Z,16.4
2017-07-26T15:14:59.735Z,16.4
2017-07-26T15:16:12.076Z,16.32
2017-07-26T15:17:24.714Z,16.39
2017-07-26T15:18:37.006Z,16.41
2017-07-26T15:19:49.268Z,16.4
2017-07-26T15:21:01.869Z,16.36
2017-07-26T15:22:14.148Z,16.41
2017-07-26T15:23:26.748Z,16.32
2017-07-26T15:24:39.016Z,16.39
2017-07-26T15:25:51.646Z,16.37
2017-07-26T15:27:03.924Z,16.34
2017-07-26T15:28:16.180Z,16.37
2017-07-26T15:29:28.193Z,16.39
2017-07-26T15:30:40.768Z,16.29
2017-07-26T15:31:53.438Z,16.34
2017-07-26T15:33:05.423Z,16.34
2017-07-26T15:34:17.043Z,16.29
2017-07-26T15:35:29.614Z,16.31